Time;durP1;ratioP1;P1;durP2;ratioP2;P2;SDS_P1;SDS_P2;PMS_P1;PMS_P2;Temp;Humidity;BMP_temperature;BMP_pressure;BME280_temperature;BME280_humidity;BME280_pressure;Samples;Min_cycle;Max_cycle;Signal;HPM_P1;HPM_P2
2022/07/12 00:01:19;;;;;;;;;;;21.70;51.80;;;;;;5042483;28;19966;-60
2022/07/12 00:03:46;;;;;;;;;;;21.70;51.80;;;;;;5060663;28;20378;-58
2022/07/12 00:06:12;;;;;;;;;;;21.70;51.80;;;;;;5066181;28;20017;-58
2022/07/12 00:08:39;;;;;;;;;;;21.70;51.80;;;;;;5061446;28;20008;-60
2022/07/12 00:11:06;;;;;;;;;;;21.70;51.80;;;;;;5058747;28;19994;-60
2022/07/12 00:13:33;;;;;;;;;;;21.70;51.80;;;;;;5069745;28;19921;-59
2022/07/12 00:16:01;;;;;;;;;;;21.70;51.80;;;;;;5060313;28;19986;-57
2022/07/12 00:18:28;;;;;;;;;;;21.70;51.80;;;;;;5037744;28;20377;-58
2022/07/12 00:20:54;;;;;;;;;;;21.70;51.70;;;;;;5042595;28;19927;-58
2022/07/12 00:23:21;;;;;;;;;;;21.70;51.70;;;;;;5060982;28;19921;-60
2022/07/12 00:25:48;;;;;;;;;;;21.70;51.70;;;;;;5066920;28;19921;-59
2022/07/12 00:28:15;;;;;;;;;;;21.70;51.70;;;;;;5063354;28;20090;-59
2022/07/12 00:30:41;;;;;;;;;;;21.70;51.70;;;;;;5045191;28;19966;-57
2022/07/12 00:33:09;;;;;;;;;;;21.70;51.70;;;;;;5042025;28;20364;-58
2022/07/12 00:35:36;;;;;;;;;;;21.70;52.30;;;;;;5069410;28;19932;-58
2022/07/12 00:38:03;;;;;;;;;;;21.70;51.70;;;;;;5064931;28;20044;-59
2022/07/12 00:40:30;;;;;;;;;;;21.70;51.70;;;;;;5060921;28;19921;-56
2022/07/12 00:42:57;;;;;;;;;;;21.70;51.70;;;;;;5048800;28;19932;-60
2022/07/12 00:45:24;;;;;;;;;;;21.70;51.70;;;;;;5048703;28;20029;-58
2022/07/12 00:47:51;;;;;;;;;;;21.70;52.30;;;;;;5047180;28;20380;-57
2022/07/12 00:50:22;;;;;;;;;;;21.70;51.70;;;;;;5067016;28;19928;-59
2022/07/12 00:52:49;;;;;;;;;;;21.60;52.20;;;;;;5051325;28;20399;-59
2022/07/12 00:55:16;;;;;;;;;;;21.60;51.60;;;;;;5064896;28;20297;-60
2022/07/12 00:57:44;;;;;;;;;;;21.70;51.70;;;;;;5047061;28;19920;-60
2022/07/12 01:00:11;;;;;;;;;;;21.60;51.60;;;;;;5043020;28;19931;-58
2022/07/12 01:02:38;;;;;;;;;;;21.70;51.70;;;;;;5031966;28;19920;-59
2022/07/12 01:05:05;;;;;;;;;;;21.60;51.60;;;;;;5049482;28;19928;-58
2022/07/12 01:07:34;;;;;;;;;;;21.60;51.60;;;;;;5044817;28;20251;-59
2022/07/12 01:10:00;;;;;;;;;;;21.70;51.60;;;;;;5065984;28;19924;-59
2022/07/12 01:12:27;;;;;;;;;;;21.70;51.70;;;;;;5067265;28;19967;-58
2022/07/12 01:14:54;;;;;;;;;;;21.60;51.60;;;;;;5044063;28;20490;-58
2022/07/12 01:17:31;;;;;;;;;;;21.60;51.60;;;;;;5066206;28;19936;-59
2022/07/12 01:19:58;;;;;;;;;;;21.60;51.60;;;;;;5044738;28;19928;-60
2022/07/12 01:22:26;;;;;;;;;;;21.60;51.60;;;;;;5061406;28;19975;-59
2022/07/12 01:24:54;;;;;;;;;;;21.60;51.60;;;;;;5048257;28;20002;-60
2022/07/12 01:27:21;;;;;;;;;;;21.60;51.60;;;;;;5046894;28;19967;-59
2022/07/12 01:29:48;;;;;;;;;;;21.60;51.50;;;;;;5039528;28;20380;-60
2022/07/12 01:32:28;;;;;;;;;;;21.60;52.10;;;;;;5064284;28;20346;-59
2022/07/12 01:34:55;;;;;;;;;;;21.60;51.50;;;;;;5049474;28;20402;-58
2022/07/12 01:37:22;;;;;;;;;;;21.60;51.50;;;;;;5069704;28;19920;-58
2022/07/12 01:39:49;;;;;;;;;;;21.60;51.50;;;;;;5041063;28;19920;-58
2022/07/12 01:42:18;;;;;;;;;;;21.60;51.50;;;;;;5041213;28;19927;-60
2022/07/12 01:44:45;;;;;;;;;;;21.60;51.50;;;;;;5046743;28;19921;-58
2022/07/12 01:47:12;;;;;;;;;;;21.60;51.70;;;;;;5064345;28;19920;-59
2022/07/12 01:49:38;;;;;;;;;;;21.60;51.50;;;;;;5063095;28;19924;-60
2022/07/12 01:52:05;;;;;;;;;;;21.60;51.50;;;;;;5048338;28;19920;-60
2022/07/12 01:54:32;;;;;;;;;;;21.60;51.50;;;;;;5064881;28;19924;-61
2022/07/12 01:56:59;;;;;;;;;;;21.60;51.50;;;;;;5063499;28;19975;-60
2022/07/12 01:59:27;;;;;;;;;;;21.60;51.40;;;;;;5063322;28;19924;-60
2022/07/12 02:01:54;;;;;;;;;;;21.60;51.40;;;;;;5062906;28;19970;-59
2022/07/12 02:04:20;;;;;;;;;;;21.60;51.40;;;;;;5066518;28;20404;-60
2022/07/12 02:06:47;;;;;;;;;;;21.60;51.30;;;;;;5044030;28;20041;-58
2022/07/12 02:09:14;;;;;;;;;;;21.60;51.40;;;;;;5063696;28;20312;-58
2022/07/12 02:11:41;;;;;;;;;;;21.60;51.30;;;;;;5046471;28;19974;-60
2022/07/12 02:14:07;;;;;;;;;;;21.60;51.30;;;;;;5063462;28;19925;-58
2022/07/12 02:16:35;;;;;;;;;;;21.60;51.30;;;;;;5061376;28;19988;-60
2022/07/12 02:19:02;;;;;;;;;;;21.60;51.30;;;;;;5058791;28;20027;-60
2022/07/12 02:21:29;;;;;;;;;;;21.60;51.30;;;;;;5067551;28;19989;-59
2022/07/12 02:23:56;;;;;;;;;;;21.60;51.30;;;;;;5044174;28;19924;-59
2022/07/12 02:26:23;;;;;;;;;;;21.60;51.30;;;;;;5063156;28;20354;-59
2022/07/12 02:28:49;;;;;;;;;;;21.60;51.20;;;;;;5044272;28;19920;-59
2022/07/12 02:31:16;;;;;;;;;;;21.60;51.20;;;;;;5066473;28;20415;-58
2022/07/12 02:33:44;;;;;;;;;;;21.60;51.20;;;;;;5060974;28;20016;-60
2022/07/12 02:36:11;;;;;;;;;;;21.60;51.20;;;;;;5046000;28;19967;-57
2022/07/12 02:38:38;;;;;;;;;;;21.60;51.20;;;;;;5063064;28;19970;-59
2022/07/12 02:41:05;;;;;;;;;;;21.60;51.20;;;;;;5062296;28;19924;-58
2022/07/12 02:43:32;;;;;;;;;;;21.60;51.20;;;;;;5045168;28;19960;-60
2022/07/12 02:46:03;;;;;;;;;;;21.60;51.20;;;;;;5043849;28;20242;-58
2022/07/12 02:48:33;;;;;;;;;;;21.60;51.20;;;;;;5045008;28;20127;-58
2022/07/12 02:51:01;;;;;;;;;;;21.60;51.20;;;;;;5047544;28;19925;-61
2022/07/12 02:53:28;;;;;;;;;;;21.60;51.20;;;;;;5064164;28;20072;-60
2022/07/12 02:55:55;;;;;;;;;;;21.60;51.20;;;;;;5068165;28;19920;-59
2022/07/12 02:58:22;;;;;;;;;;;21.60;51.20;;;;;;5065041;28;19921;-58
2022/07/12 03:00:49;;;;;;;;;;;21.60;51.20;;;;;;5061813;28;20373;-59
2022/07/12 03:03:15;;;;;;;;;;;21.60;51.20;;;;;;5062814;28;20008;-60
2022/07/12 03:05:42;;;;;;;;;;;21.60;51.20;;;;;;5044233;28;20370;-60
2022/07/12 03:08:11;;;;;;;;;;;21.60;51.20;;;;;;5045973;28;19920;-60
2022/07/12 03:10:37;;;;;;;;;;;21.60;51.20;;;;;;5065875;28;20373;-61
2022/07/12 03:13:04;;;;;;;;;;;21.60;51.20;;;;;;5063412;28;19966;-58
2022/07/12 03:15:31;;;;;;;;;;;21.60;51.10;;;;;;5061154;28;19920;-60
2022/07/12 03:17:58;;;;;;;;;;;21.60;51.20;;;;;;5061967;28;19930;-60
2022/07/12 03:20:24;;;;;;;;;;;21.50;51.00;;;;;;5048446;28;20019;-59
2022/07/12 03:22:51;;;;;;;;;;;21.50;51.10;;;;;;5060600;28;20292;-60
2022/07/12 03:25:19;;;;;;;;;;;21.50;51.00;;;;;;5067317;28;19975;-58
2022/07/12 03:27:46;;;;;;;;;;;21.50;51.00;;;;;;5045195;28;19927;-58
2022/07/12 03:30:13;;;;;;;;;;;21.50;51.00;;;;;;5063555;28;19925;-59
2022/07/12 03:32:45;;;;;;;;;;;21.50;51.00;;;;;;5048247;28;19920;-60
2022/07/12 03:35:12;;;;;;;;;;;21.50;51.00;;;;;;5053130;28;19924;-60
2022/07/12 03:37:45;;;;;;;;;;;21.50;51.00;;;;;;5043850;28;20015;-58
2022/07/12 03:40:13;;;;;;;;;;;21.50;51.00;;;;;;5058468;28;20004;-60
2022/07/12 03:42:41;;;;;;;;;;;21.50;51.00;;;;;;5048683;28;20010;-60
2022/07/12 03:45:08;;;;;;;;;;;21.50;51.00;;;;;;5046820;28;19921;-61
2022/07/12 03:47:35;;;;;;;;;;;21.50;51.00;;;;;;5045338;28;19921;-59
2022/07/12 03:50:04;;;;;;;;;;;21.50;51.00;;;;;;5062231;28;19921;-60
2022/07/12 03:52:31;;;;;;;;;;;21.50;51.00;;;;;;5057419;28;19921;-60
2022/07/12 03:54:58;;;;;;;;;;;21.50;51.00;;;;;;5041141;28;20290;-60
2022/07/12 03:57:26;;;;;;;;;;;21.50;51.00;;;;;;5069843;28;19933;-58
2022/07/12 03:59:54;;;;;;;;;;;21.50;51.00;;;;;;5061356;28;20290;-60
2022/07/12 04:02:21;;;;;;;;;;;21.50;51.60;;;;;;5061049;28;19928;-60
2022/07/12 04:04:47;;;;;;;;;;;21.50;51.10;;;;;;5042624;28;19920;-60
2022/07/12 04:07:14;;;;;;;;;;;21.50;51.10;;;;;;5045929;28;19966;-60
2022/07/12 04:09:42;;;;;;;;;;;21.50;51.10;;;;;;5068915;28;19936;-61
2022/07/12 04:12:09;;;;;;;;;;;21.50;51.10;;;;;;5047001;28;19935;-61
2022/07/12 04:14:35;;;;;;;;;;;21.50;51.10;;;;;;5041680;28;19956;-60
2022/07/12 04:17:05;;;;;;;;;;;21.50;51.10;;;;;;5066109;28;19933;-59
2022/07/12 04:19:32;;;;;;;;;;;21.50;51.20;;;;;;5066419;28;19921;-59
2022/07/12 04:21:58;;;;;;;;;;;21.50;51.20;;;;;;5044925;28;19928;-60
2022/07/12 04:24:25;;;;;;;;;;;21.50;51.20;;;;;;5065209;28;19943;-59
2022/07/12 04:26:52;;;;;;;;;;;21.50;51.30;;;;;;5060546;28;19958;-60
2022/07/12 04:29:20;;;;;;;;;;;21.50;51.20;;;;;;5066376;28;19977;-60
2022/07/12 04:31:46;;;;;;;;;;;21.50;51.20;;;;;;5063961;28;20388;-58
2022/07/12 04:34:17;;;;;;;;;;;21.40;51.10;;;;;;5067685;28;19974;-59
2022/07/12 04:36:44;;;;;;;;;;;21.50;51.20;;;;;;5067989;28;19928;-59
2022/07/12 04:39:11;;;;;;;;;;;21.50;51.20;;;;;;5047970;28;20035;-59
2022/07/12 04:41:38;;;;;;;;;;;21.50;51.20;;;;;;5047402;28;19924;-61
2022/07/12 04:44:05;;;;;;;;;;;21.50;51.30;;;;;;5044912;28;19920;-60
2022/07/12 04:46:32;;;;;;;;;;;21.50;51.20;;;;;;5062123;28;20372;-60
2022/07/12 04:48:58;;;;;;;;;;;21.50;51.30;;;;;;5043442;28;19960;-60
2022/07/12 04:51:27;;;;;;;;;;;21.50;51.30;;;;;;5062569;28;20015;-60
2022/07/12 04:53:53;;;;;;;;;;;21.50;51.30;;;;;;5043388;28;20285;-61
2022/07/12 04:56:20;;;;;;;;;;;21.50;51.30;;;;;;5047614;28;20332;-60
2022/07/12 04:58:50;;;;;;;;;;;21.50;51.30;;;;;;5046787;28;19928;-60
2022/07/12 05:01:17;;;;;;;;;;;21.50;51.40;;;;;;5066127;28;20316;-60
2022/07/12 05:03:44;;;;;;;;;;;21.50;51.40;;;;;;5029136;28;19930;-60
2022/07/12 05:06:11;;;;;;;;;;;21.50;51.40;;;;;;5061755;28;20351;-60
2022/07/12 05:08:39;;;;;;;;;;;21.50;51.40;;;;;;5043811;28;20327;-59
2022/07/12 05:11:06;;;;;;;;;;;21.50;51.40;;;;;;5065185;28;19990;-61
2022/07/12 05:13:33;;;;;;;;;;;21.50;51.40;;;;;;5043605;28;20050;-60
2022/07/12 05:15:59;;;;;;;;;;;21.50;51.50;;;;;;5046311;28;20365;-60
2022/07/12 05:18:27;;;;;;;;;;;21.50;51.50;;;;;;5064049;28;19921;-60
2022/07/12 05:20:53;;;;;;;;;;;21.50;51.50;;;;;;5066345;28;19921;-60
2022/07/12 05:23:20;;;;;;;;;;;21.50;51.50;;;;;;5043129;28;19921;-59
2022/07/12 05:25:48;;;;;;;;;;;21.50;51.50;;;;;;5048023;28;20309;-60
2022/07/12 05:28:15;;;;;;;;;;;21.50;51.50;;;;;;5064033;28;20354;-60
2022/07/12 05:30:42;;;;;;;;;;;21.50;51.60;;;;;;5067274;28;19958;-60
2022/07/12 05:33:09;;;;;;;;;;;21.50;51.60;;;;;;5062600;28;19932;-60
2022/07/12 05:35:36;;;;;;;;;;;21.50;51.60;;;;;;5040729;28;19925;-60
2022/07/12 05:38:03;;;;;;;;;;;21.50;51.60;;;;;;5040540;28;19933;-60
2022/07/12 05:40:29;;;;;;;;;;;21.50;51.60;;;;;;5062649;28;19982;-60
2022/07/12 05:42:58;;;;;;;;;;;21.50;51.60;;;;;;5060375;28;19925;-61
2022/07/12 05:45:25;;;;;;;;;;;21.50;51.60;;;;;;5063041;28;19927;-60
2022/07/12 05:47:53;;;;;;;;;;;21.50;51.60;;;;;;5063617;28;19921;-60
2022/07/12 05:50:19;;;;;;;;;;;21.50;51.60;;;;;;5043039;28;20262;-60
2022/07/12 05:55:31;;;;;;;;;;;21.50;51.70;;;;;;5045537;28;19922;-60
2022/07/12 05:57:59;;;;;;;;;;;21.50;51.70;;;;;;5062230;28;19928;-59
2022/07/12 06:00:25;;;;;;;;;;;21.50;51.60;;;;;;5043316;28;19956;-60
2022/07/12 06:02:52;;;;;;;;;;;21.50;51.60;;;;;;5062870;28;20325;-59
2022/07/12 06:05:19;;;;;;;;;;;21.50;51.60;;;;;;5061531;28;19925;-60
2022/07/12 06:07:45;;;;;;;;;;;21.50;51.60;;;;;;5060736;28;19966;-61
2022/07/12 06:10:12;;;;;;;;;;;21.50;51.60;;;;;;5064550;28;20003;-61
2022/07/12 06:12:39;;;;;;;;;;;21.50;51.60;;;;;;5044373;28;20377;-60
2022/07/12 06:15:08;;;;;;;;;;;21.50;51.60;;;;;;5062474;28;20007;-61
2022/07/12 06:17:34;;;;;;;;;;;21.50;51.60;;;;;;5063044;28;19963;-60
2022/07/12 06:20:01;;;;;;;;;;;21.50;51.70;;;;;;5067068;28;19950;-60
2022/07/12 06:22:28;;;;;;;;;;;21.50;51.60;;;;;;5043420;28;20394;-60
2022/07/12 06:24:55;;;;;;;;;;;21.50;51.60;;;;;;5060011;28;19967;-60
2022/07/12 06:27:22;;;;;;;;;;;21.50;51.60;;;;;;5041312;28;20385;-59
2022/07/12 06:29:48;;;;;;;;;;;21.50;51.60;;;;;;5060944;28;19967;-59
2022/07/12 06:32:17;;;;;;;;;;;21.50;51.60;;;;;;5044525;28;19920;-60
2022/07/12 06:34:43;;;;;;;;;;;21.50;51.60;;;;;;5068592;28;20342;-60
2022/07/12 06:37:12;;;;;;;;;;;21.50;51.60;;;;;;5047940;28;20019;-60
2022/07/12 06:39:39;;;;;;;;;;;21.50;51.60;;;;;;5049599;28;19948;-60
2022/07/12 06:42:06;;;;;;;;;;;21.50;51.60;;;;;;5049717;28;20091;-60
2022/07/12 06:44:33;;;;;;;;;;;21.50;52.20;;;;;;5068561;28;19921;-61
2022/07/12 06:47:00;;;;;;;;;;;21.50;51.60;;;;;;5046180;28;19962;-59
2022/07/12 06:49:28;;;;;;;;;;;21.50;51.60;;;;;;5054009;28;19925;-59
2022/07/12 06:51:54;;;;;;;;;;;21.50;51.60;;;;;;5036313;28;20638;-61
2022/07/12 06:54:21;;;;;;;;;;;21.50;51.60;;;;;;5066952;28;20024;-61
2022/07/12 06:56:48;;;;;;;;;;;21.50;51.60;;;;;;5052038;28;19921;-58
2022/07/12 06:59:14;;;;;;;;;;;21.50;51.60;;;;;;5063744;28;19954;-59
2022/07/12 07:01:41;;;;;;;;;;;21.50;51.50;;;;;;5036832;28;19921;-59
2022/07/12 07:04:08;;;;;;;;;;;21.50;51.50;;;;;;5036765;28;19921;-58
2022/07/12 07:06:36;;;;;;;;;;;21.50;51.50;;;;;;5052497;28;19924;-60
2022/07/12 07:09:06;;;;;;;;;;;21.50;51.50;;;;;;5052818;28;20301;-61
2022/07/12 07:11:33;;;;;;;;;;;21.60;51.60;;;;;;5053320;28;20012;-64
2022/07/12 07:14:00;;;;;;;;;;;21.50;51.60;;;;;;5036217;28;19936;-65
2022/07/12 07:16:28;;;;;;;;;;;21.60;51.60;;;;;;5053974;28;20012;-65
2022/07/12 07:18:55;;;;;;;;;;;21.60;51.60;;;;;;5036377;28;20012;-64
2022/07/12 07:21:22;;;;;;;;;;;21.60;51.60;;;;;;5054461;28;19921;-64
2022/07/12 07:23:50;;;;;;;;;;;21.60;51.60;;;;;;5053982;28;19924;-64
2022/07/12 07:26:17;;;;;;;;;;;21.60;51.60;;;;;;5035957;28;20401;-64
2022/07/12 07:31:28;;;;;;;;;;;21.60;51.60;;;;;;5052982;28;19916;-64
2022/07/12 07:33:54;;;;;;;;;;;21.60;51.60;;;;;;5052431;28;19925;-64
2022/07/12 07:36:21;;;;;;;;;;;21.60;51.60;;;;;;5052877;28;20290;-64
2022/07/12 07:38:49;;;;;;;;;;;21.60;51.50;;;;;;5056045;28;19944;-64
2022/07/12 07:41:16;;;;;;;;;;;21.60;51.50;;;;;;5056694;28;19974;-64
2022/07/12 07:43:43;;;;;;;;;;;21.60;52.10;;;;;;5039436;28;19971;-65
2022/07/12 07:46:09;;;;;;;;;;;21.60;51.50;;;;;;5039589;28;20373;-58
2022/07/12 07:48:36;;;;;;;;;;;21.70;51.50;;;;;;5057345;28;20338;-59
2022/07/12 07:51:03;;;;;;;;;;;21.70;51.50;;;;;;5040461;28;19921;-59
2022/07/12 07:53:30;;;;;;;;;;;21.70;51.50;;;;;;5039778;28;20295;-64
2022/07/12 07:55:58;;;;;;;;;;;21.70;51.50;;;;;;5039436;28;19921;-65
2022/07/12 07:58:25;;;;;;;;;;;21.70;51.50;;;;;;5057475;28;19927;-64
2022/07/12 08:00:52;;;;;;;;;;;21.70;51.50;;;;;;5055753;28;20369;-65
2022/07/12 08:03:18;;;;;;;;;;;21.70;51.50;;;;;;5056611;28;19924;-64
2022/07/12 08:05:45;;;;;;;;;;;21.70;51.50;;;;;;5057675;28;19921;-65
2022/07/12 08:08:12;;;;;;;;;;;21.70;51.50;;;;;;5057186;28;19925;-64
2022/07/12 08:10:38;;;;;;;;;;;21.80;51.60;;;;;;5039862;28;19961;-65
2022/07/12 08:13:06;;;;;;;;;;;21.80;51.60;;;;;;5039512;28;19920;-64
2022/07/12 08:15:33;;;;;;;;;;;21.80;51.60;;;;;;5056138;28;19921;-64
2022/07/12 08:18:00;;;;;;;;;;;21.70;51.50;;;;;;5056117;28;19931;-64
2022/07/12 08:20:27;;;;;;;;;;;21.80;51.60;;;;;;5039736;28;20384;-64
2022/07/12 08:22:54;;;;;;;;;;;21.80;51.60;;;;;;5056865;28;19928;-64
2022/07/12 08:25:21;;;;;;;;;;;21.80;52.20;;;;;;5056444;28;20054;-65
2022/07/12 08:27:48;;;;;;;;;;;21.80;51.60;;;;;;5039263;28;20273;-64
2022/07/12 08:30:16;;;;;;;;;;;21.80;51.60;;;;;;5056809;28;20383;-65
2022/07/12 08:32:46;;;;;;;;;;;21.80;51.60;;;;;;5055974;28;19928;-65
2022/07/12 08:35:13;;;;;;;;;;;21.80;51.60;;;;;;5056815;28;19951;-65
2022/07/12 08:37:40;;;;;;;;;;;21.80;51.60;;;;;;5057641;28;19983;-65
2022/07/12 08:40:08;;;;;;;;;;;21.80;51.60;;;;;;5055755;28;19982;-65
2022/07/12 08:42:35;;;;;;;;;;;21.80;51.60;;;;;;5056078;28;19986;-65
2022/07/12 08:45:02;;;;;;;;;;;21.80;51.60;;;;;;5039150;28;19927;-65
2022/07/12 08:47:30;;;;;;;;;;;21.80;51.60;;;;;;5056405;28;19928;-64
2022/07/12 08:50:17;;;;;;;;;;;21.90;51.60;;;;;;5038154;28;19925;-64
2022/07/12 08:52:44;;;;;;;;;;;21.90;51.60;;;;;;5056244;28;19924;-65
2022/07/12 08:55:21;;;;;;;;;;;21.90;51.60;;;;;;5055725;28;20019;-65
2022/07/12 08:57:47;;;;;;;;;;;21.90;51.60;;;;;;5038727;28;19927;-64
2022/07/12 09:00:14;;;;;;;;;;;21.90;52.20;;;;;;5039129;28;20392;-64
2022/07/12 09:02:46;;;;;;;;;;;21.90;51.60;;;;;;5038751;28;19931;-64
2022/07/12 09:05:13;;;;;;;;;;;21.90;51.60;;;;;;5055740;28;19963;-61
2022/07/12 09:07:40;;;;;;;;;;;21.90;51.60;;;;;;5039376;28;20293;-64
2022/07/12 09:10:07;;;;;;;;;;;21.90;51.60;;;;;;5038862;28;19921;-63
2022/07/12 09:12:34;;;;;;;;;;;21.90;51.60;;;;;;5038164;28;20350;-64
2022/07/12 09:15:11;;;;;;;;;;;21.90;51.60;;;;;;5055327;28;20493;-64
2022/07/12 09:17:37;;;;;;;;;;;21.90;51.60;;;;;;5038384;28;20019;-64
2022/07/12 09:20:07;;;;;;;;;;;21.90;51.70;;;;;;5054391;28;19928;-64
2022/07/12 09:22:34;;;;;;;;;;;21.90;51.70;;;;;;5055054;28;19974;-64
2022/07/12 09:25:19;;;;;;;;;;;21.90;51.70;;;;;;5037877;28;19982;-64
2022/07/12 09:27:50;;;;;;;;;;;21.90;51.70;;;;;;5055070;28;19925;-61
2022/07/12 09:30:17;;;;;;;;;;;21.90;51.80;;;;;;5055654;28;20385;-60
2022/07/12 09:38:22;;;;;;;;;;;21.90;51.80;;;;;;5054701;28;19921;-64
2022/07/12 09:40:49;;;;;;;;;;;21.90;51.80;;;;;;5055662;28;19947;-64
2022/07/12 09:43:16;;;;;;;;;;;21.90;51.80;;;;;;5055244;28;19920;-64
2022/07/12 09:45:44;;;;;;;;;;;21.90;51.80;;;;;;5037490;28;19921;-64
2022/07/12 09:48:11;;;;;;;;;;;21.90;51.80;;;;;;5053991;28;19960;-65
2022/07/12 09:50:39;;;;;;;;;;;22.00;51.90;;;;;;5055548;28;20073;-64
2022/07/12 09:53:06;;;;;;;;;;;21.90;51.80;;;;;;5054787;28;19956;-64
2022/07/12 09:55:33;;;;;;;;;;;22.00;51.90;;;;;;5038168;28;20006;-64
2022/07/12 09:58:02;;;;;;;;;;;21.90;51.80;;;;;;5037721;28;20271;-65
2022/07/12 10:00:29;;;;;;;;;;;22.00;51.80;;;;;;5037395;28;19920;-64
2022/07/12 10:02:56;;;;;;;;;;;22.00;51.80;;;;;;5036940;28;19983;-65
2022/07/12 10:05:23;;;;;;;;;;;22.00;51.90;;;;;;5054064;28;19921;-64
2022/07/12 10:07:51;;;;;;;;;;;22.00;51.80;;;;;;5054042;28;19921;-64
2022/07/12 10:10:18;;;;;;;;;;;22.00;51.80;;;;;;5054350;28;19921;-64
2022/07/12 10:12:45;;;;;;;;;;;22.00;51.80;;;;;;5037444;28;20027;-66
2022/07/12 10:15:30;;;;;;;;;;;22.00;51.80;;;;;;5037907;28;19993;-64
2022/07/12 10:17:58;;;;;;;;;;;22.00;51.80;;;;;;5037120;28;19921;-64
2022/07/12 10:20:26;;;;;;;;;;;22.00;51.80;;;;;;5054701;28;20266;-64
2022/07/12 10:22:54;;;;;;;;;;;22.00;51.80;;;;;;5054566;28;19928;-64
2022/07/12 10:25:33;;;;;;;;;;;22.00;51.90;;;;;;5037224;28;19952;-65
2022/07/12 10:28:00;;;;;;;;;;;22.00;51.90;;;;;;5054451;28;19964;-64
2022/07/12 10:30:27;;;;;;;;;;;22.00;51.90;;;;;;5036754;28;19920;-64
2022/07/12 10:32:56;;;;;;;;;;;22.00;51.90;;;;;;5036515;28;19924;-64
2022/07/12 10:35:24;;;;;;;;;;;22.00;51.90;;;;;;5054388;28;20391;-64
2022/07/12 10:38:09;;;;;;;;;;;22.00;51.90;;;;;;5054619;28;19921;-64
2022/07/12 10:40:37;;;;;;;;;;;22.00;51.90;;;;;;5054271;28;19974;-66
2022/07/12 10:43:14;;;;;;;;;;;22.00;51.80;;;;;;5036605;28;20273;-65
2022/07/12 10:45:41;;;;;;;;;;;22.00;51.80;;;;;;5053290;28;19920;-64
2022/07/12 10:48:09;;;;;;;;;;;22.00;51.80;;;;;;5037039;28;19928;-64
2022/07/12 10:50:55;;;;;;;;;;;22.10;51.90;;;;;;5036318;28;19925;-64
2022/07/12 10:53:22;;;;;;;;;;;22.10;51.80;;;;;;5036512;28;19932;-64
2022/07/12 10:56:03;;;;;;;;;;;22.10;51.90;;;;;;5037178;28;19925;-64
2022/07/12 10:58:32;;;;;;;;;;;22.10;51.80;;;;;;5035815;28;19950;-59
2022/07/12 11:00:58;;;;;;;;;;;22.10;51.90;;;;;;5036780;28;19971;-59
2022/07/12 11:03:25;;;;;;;;;;;22.10;51.90;;;;;;5053259;28;19921;-59
2022/07/12 11:05:52;;;;;;;;;;;22.10;51.90;;;;;;5036421;28;19991;-58
2022/07/12 11:08:19;;;;;;;;;;;22.10;51.90;;;;;;5053268;28;19920;-58
2022/07/12 11:10:55;;;;;;;;;;;22.10;51.90;;;;;;5036768;28;19964;-59
2022/07/12 11:13:22;;;;;;;;;;;22.10;51.90;;;;;;5036535;28;20378;-60
2022/07/12 11:15:57;;;;;;;;;;;22.10;51.90;;;;;;5053385;28;19924;-65
2022/07/12 11:18:33;;;;;;;;;;;22.20;52.00;;;;;;5053360;28;19921;-65
2022/07/12 11:21:00;;;;;;;;;;;22.10;52.00;;;;;;5052630;28;19975;-64
2022/07/12 11:23:27;;;;;;;;;;;22.10;52.00;;;;;;5053764;28;19921;-64
2022/07/12 11:25:54;;;;;;;;;;;22.10;52.00;;;;;;5035874;28;20300;-64
2022/07/12 11:28:28;;;;;;;;;;;22.20;52.00;;;;;;5053931;28;19921;-64
2022/07/12 11:31:02;;;;;;;;;;;22.20;52.00;;;;;;5053029;28;19975;-64
2022/07/12 11:36:14;;;;;;;;;;;22.20;52.00;;;;;;5052378;28;19916;-63
2022/07/12 11:38:41;;;;;;;;;;;22.20;52.00;;;;;;5052743;28;19920;-64
2022/07/12 11:41:09;;;;;;;;;;;22.20;52.10;;;;;;5036212;28;19967;-64
2022/07/12 11:43:36;;;;;;;;;;;22.20;52.10;;;;;;5052679;28;19968;-64
2022/07/12 11:46:04;;;;;;;;;;;22.20;52.20;;;;;;5052597;28;19924;-64
2022/07/12 11:48:32;;;;;;;;;;;22.20;52.20;;;;;;5035641;28;20023;-63
2022/07/12 11:51:01;;;;;;;;;;;22.30;52.30;;;;;;5053359;28;19920;-65
2022/07/12 11:53:28;;;;;;;;;;;22.30;52.40;;;;;;5036348;28;19920;-64
2022/07/12 11:55:55;;;;;;;;;;;22.20;52.20;;;;;;5036196;28;20016;-65
2022/07/12 11:58:22;;;;;;;;;;;22.20;52.30;;;;;;5053532;28;20019;-66
2022/07/12 12:00:49;;;;;;;;;;;22.30;52.50;;;;;;5052941;28;20304;-66
2022/07/12 12:03:18;;;;;;;;;;;22.30;52.50;;;;;;5035890;28;19921;-65
2022/07/12 12:05:44;;;;;;;;;;;22.30;52.50;;;;;;5035774;28;20227;-64
2022/07/12 12:08:12;;;;;;;;;;;22.30;52.50;;;;;;5052747;28;19921;-64
2022/07/12 12:10:39;;;;;;;;;;;22.30;52.50;;;;;;5053567;28;19921;-65
2022/07/12 12:13:10;;;;;;;;;;;22.30;52.50;;;;;;5053389;28;20350;-64
2022/07/12 12:15:37;;;;;;;;;;;22.30;52.50;;;;;;5035074;28;20316;-65
2022/07/12 12:18:04;;;;;;;;;;;22.30;52.50;;;;;;5052956;28;19920;-66
2022/07/12 12:20:33;;;;;;;;;;;22.30;52.50;;;;;;5051996;28;20308;-64
2022/07/12 12:23:00;;;;;;;;;;;22.40;52.50;;;;;;5053071;28;19964;-64
2022/07/12 12:25:27;;;;;;;;;;;22.40;52.60;;;;;;5054340;28;19986;-64
2022/07/12 12:27:55;;;;;;;;;;;22.40;52.60;;;;;;5039087;28;19929;-64
2022/07/12 12:30:22;;;;;;;;;;;22.40;52.60;;;;;;5038398;28;19986;-63
2022/07/12 12:32:50;;;;;;;;;;;22.40;52.60;;;;;;5038866;28;19936;-64
2022/07/12 12:35:17;;;;;;;;;;;22.40;52.60;;;;;;5038320;28;19967;-64
2022/07/12 12:37:55;;;;;;;;;;;22.40;52.70;;;;;;5038670;28;20034;-64
2022/07/12 12:40:22;;;;;;;;;;;22.40;52.60;;;;;;5056637;28;20265;-64
2022/07/12 12:45:33;;;;;;;;;;;22.40;52.50;;;;;;5056103;28;19932;-64
2022/07/12 12:48:00;;;;;;;;;;;22.50;52.70;;;;;;5039443;28;19921;-64
2022/07/12 12:50:40;;;;;;;;;;;22.40;52.60;;;;;;5056375;28;20350;-64
2022/07/12 12:53:09;;;;;;;;;;;22.40;52.60;;;;;;5056422;28;19927;-64
2022/07/12 12:55:36;;;;;;;;;;;22.40;52.60;;;;;;5038777;28;19921;-65
2022/07/12 12:58:02;;;;;;;;;;;22.50;52.70;;;;;;5055652;28;20426;-63
2022/07/12 13:00:29;;;;;;;;;;;22.50;52.70;;;;;;5038857;28;19975;-64
2022/07/12 13:02:58;;;;;;;;;;;22.50;52.80;;;;;;5055830;28;19975;-64
2022/07/12 13:05:25;;;;;;;;;;;22.50;52.70;;;;;;5055709;28;20003;-63
2022/07/12 13:07:52;;;;;;;;;;;22.50;52.80;;;;;;5055345;28;20374;-64
2022/07/12 13:10:20;;;;;;;;;;;22.50;52.70;;;;;;5038223;28;19921;-64
2022/07/12 13:12:46;;;;;;;;;;;22.50;52.70;;;;;;5037938;28;19935;-64
2022/07/12 13:15:13;;;;;;;;;;;22.50;52.70;;;;;;5055458;28;20342;-64
2022/07/12 13:17:40;;;;;;;;;;;22.50;52.80;;;;;;5038931;28;20024;-64
2022/07/12 13:20:08;;;;;;;;;;;22.50;52.90;;;;;;5037769;28;19920;-64
2022/07/12 13:22:34;;;;;;;;;;;22.50;52.80;;;;;;5055111;28;20016;-64
2022/07/12 13:25:01;;;;;;;;;;;22.50;52.80;;;;;;5054743;28;19928;-64
2022/07/12 13:27:29;;;;;;;;;;;22.50;52.80;;;;;;5037955;28;19975;-64
2022/07/12 13:29:56;;;;;;;;;;;22.50;52.90;;;;;;5054340;28;19920;-64
2022/07/12 13:32:42;;;;;;;;;;;22.60;52.90;;;;;;5054171;28;19921;-64
2022/07/12 13:35:09;;;;;;;;;;;22.60;53.20;;;;;;5055500;28;20448;-64
2022/07/12 13:37:36;;;;;;;;;;;22.60;53.10;;;;;;5054447;28;19920;-65
2022/07/12 13:40:16;;;;;;;;;;;22.60;53.10;;;;;;5037484;28;20385;-64
2022/07/12 13:42:44;;;;;;;;;;;22.60;53.10;;;;;;5055617;28;19921;-64
2022/07/12 13:45:12;;;;;;;;;;;22.60;53.10;;;;;;5054190;28;19925;-64
2022/07/12 13:47:39;;;;;;;;;;;22.60;53.20;;;;;;5054350;28;19968;-64
2022/07/12 13:50:06;;;;;;;;;;;22.60;53.20;;;;;;5055153;28;19927;-65
2022/07/12 13:55:17;;;;;;;;;;;22.60;53.20;;;;;;5053842;28;19916;-64
2022/07/12 13:57:47;;;;;;;;;;;22.60;53.20;;;;;;5037637;28;19974;-65
2022/07/12 14:00:14;;;;;;;;;;;22.70;53.40;;;;;;5037956;28;19928;-65
2022/07/12 14:02:41;;;;;;;;;;;22.70;53.40;;;;;;5054755;28;19959;-64
2022/07/12 14:05:08;;;;;;;;;;;22.70;53.30;;;;;;5054675;28;19921;-64
2022/07/12 14:07:35;;;;;;;;;;;22.70;53.40;;;;;;5053989;28;19921;-64
2022/07/12 14:10:02;;;;;;;;;;;22.70;53.30;;;;;;5037175;28;19924;-65
2022/07/12 14:12:28;;;;;;;;;;;22.70;53.30;;;;;;5038172;28;19979;-64
2022/07/12 14:15:18;;;;;;;;;;;22.70;53.40;;;;;;5037415;28;19920;-64
2022/07/12 14:17:46;;;;;;;;;;;22.70;53.40;;;;;;5037793;28;19974;-64
2022/07/12 14:20:13;;;;;;;;;;;22.70;53.40;;;;;;5039364;28;19920;-64
2022/07/12 14:22:40;;;;;;;;;;;22.70;53.50;;;;;;5053832;28;19970;-64
2022/07/12 14:25:07;;;;;;;;;;;22.70;53.40;;;;;;5037379;28;19921;-64
2022/07/12 14:27:34;;;;;;;;;;;22.70;53.40;;;;;;5036922;28;19971;-66
2022/07/12 14:30:03;;;;;;;;;;;22.70;53.50;;;;;;5037346;28;20318;-64
2022/07/12 14:32:30;;;;;;;;;;;22.80;53.50;;;;;;5037158;28;19967;-64
2022/07/12 14:34:56;;;;;;;;;;;22.70;53.40;;;;;;5036241;28;20021;-64
2022/07/12 14:37:23;;;;;;;;;;;22.80;53.50;;;;;;5054738;28;19921;-64
2022/07/12 14:39:50;;;;;;;;;;;22.80;53.50;;;;;;5054633;28;20296;-65